createdAt,value
2022-12-22T00:02:17.618Z,95449.81
2022-12-22T00:07:20.323Z,95449.97
2022-12-22T00:12:21.991Z,95439.38
2022-12-22T00:17:26.418Z,95436.16
2022-12-22T00:22:27.970Z,95427.81
2022-12-22T00:27:30.928Z,95426.06
2022-12-22T00:32:35.918Z,95420.09
2022-12-22T00:37:38.106Z,95424.50
2022-12-22T00:42:40.556Z,95425.94
2022-12-22T00:47:43.269Z,95422.69
2022-12-22T00:52:45.004Z,95416.25
2022-12-22T00:57:46.707Z,95417.88
2022-12-22T01:02:48.393Z,95416.91
2022-12-22T01:07:50.174Z,95417.88
2022-12-22T01:12:51.801Z,95422.84
2022-12-22T01:17:53.321Z,95415.25
2022-12-22T01:22:54.833Z,95413.69
2022-12-22T01:27:56.458Z,95421.13
2022-12-22T01:32:58.017Z,95423.84
2022-12-22T01:37:59.552Z,95434.84
2022-12-22T01:43:01.330Z,95445.66
2022-12-22T01:48:02.992Z,95439.94
2022-12-22T01:53:08.598Z,95445.75
2022-12-22T01:58:26.478Z,95442.84
2022-12-22T02:03:28.105Z,95432.97
2022-12-22T02:08:38.040Z,95432.84
2022-12-22T02:13:59.555Z,95445.72
2022-12-22T02:19:43.370Z,95431.47
2022-12-22T02:24:57.855Z,95429.41
2022-12-22T02:30:05.882Z,95433.84
2022-12-22T02:35:16.153Z,95428.44
2022-12-22T02:40:40.651Z,95429.69
2022-12-22T02:46:01.204Z,95423.63
2022-12-22T02:51:07.065Z,95424.44
2022-12-22T02:56:10.868Z,95419.47
2022-12-22T03:01:12.615Z,95429.16
2022-12-22T03:06:14.187Z,95403.81
2022-12-22T03:11:15.677Z,95396.38
2022-12-22T03:16:17.378Z,95391.22
2022-12-22T03:21:18.932Z,95381.06
2022-12-22T03:26:23.953Z,95376.75
2022-12-22T03:31:25.611Z,95370.06
2022-12-22T03:36:27.233Z,95359.13
2022-12-22T03:41:28.814Z,95356.19
2022-12-22T03:46:30.488Z,95372.66
2022-12-22T03:51:33.660Z,95369.34
2022-12-22T03:56:38.058Z,95370.69
2022-12-22T04:01:42.861Z,95369.69
2022-12-22T04:06:45.497Z,95351.06
2022-12-22T04:11:47.042Z,95355.31
2022-12-22T04:16:49.224Z,95338.16
2022-12-22T04:21:50.872Z,95328.94
2022-12-22T04:26:52.766Z,95320.47
2022-12-22T04:31:54.343Z,95319.25
2022-12-22T04:37:00.504Z,95322.66
2022-12-22T04:42:06.189Z,95306.09
2022-12-22T04:47:07.913Z,95307.41
2022-12-22T04:52:10.097Z,95306.16
2022-12-22T04:57:11.667Z,95298.97
2022-12-22T05:02:13.409Z,95290.78
2022-12-22T05:07:15.099Z,95294.25
2022-12-22T05:12:16.892Z,95290.09
2022-12-22T05:17:19.050Z,95290.88
2022-12-22T05:22:20.578Z,95288.03
2022-12-22T05:27:22.207Z,95293.75
2022-12-22T05:32:23.837Z,95291.59
2022-12-22T05:37:25.364Z,95295.09
2022-12-22T05:42:27.000Z,95299.53
2022-12-22T05:47:28.513Z,95315.16
2022-12-22T05:52:30.258Z,95338.78
2022-12-22T05:57:31.859Z,95372.16
2022-12-22T06:02:33.619Z,95352.03
2022-12-22T06:07:38.029Z,95339.28
2022-12-22T06:12:43.552Z,95347.16
2022-12-22T06:17:45.595Z,95337.47
2022-12-22T06:22:47.143Z,95334.72
2022-12-22T06:27:48.716Z,95360.78
2022-12-22T06:32:50.263Z,95362.06
2022-12-22T06:37:51.770Z,95360.91
2022-12-22T06:42:53.302Z,95338.59
2022-12-22T06:47:54.945Z,95355.81
2022-12-22T06:52:56.493Z,95356.81
2022-12-22T06:57:58.208Z,95348.22
2022-12-22T07:03:00.384Z,95350.59
2022-12-22T07:08:08.031Z,95344.09
2022-12-22T07:13:10.212Z,95342.16
2022-12-22T07:18:12.275Z,95322.78
2022-12-22T07:23:14.025Z,95316.41
2022-12-22T07:28:20.670Z,95325.13
2022-12-22T07:33:23.168Z,95334.41
2022-12-22T07:38:24.776Z,95359.50
2022-12-22T07:43:26.316Z,95353.38
2022-12-22T07:48:27.815Z,95345.22
2022-12-22T07:53:29.412Z,95332.59
2022-12-22T07:58:31.119Z,95334.44
2022-12-22T08:03:32.651Z,95340.66
2022-12-22T08:08:34.665Z,95342.75
2022-12-22T08:13:36.184Z,95340.78
2022-12-22T08:18:38.627Z,95320.97
2022-12-22T08:23:40.288Z,95301.56
2022-12-22T08:28:50.595Z,95294.78
2022-12-22T08:33:54.984Z,95334.28
2022-12-22T08:38:57.215Z,95315.41
2022-12-22T08:43:58.826Z,95368.63
2022-12-22T08:49:00.524Z,95316.34
2022-12-22T08:54:05.436Z,95332.81
2022-12-22T08:59:08.065Z,95326.34
2022-12-22T09:04:12.553Z,95346.78
2022-12-22T09:09:15.445Z,95349.75
2022-12-22T09:14:17.644Z,95357.81
2022-12-22T09:19:19.448Z,95358.78
2022-12-22T09:24:20.955Z,95364.22
2022-12-22T09:29:22.615Z,95354.22
2022-12-22T09:34:24.469Z,95326.91
2022-12-22T09:39:29.170Z,95338.25
2022-12-22T09:44:38.094Z,95361.06
2022-12-22T09:49:39.797Z,95391.50
2022-12-22T09:54:41.447Z,95387.59
2022-12-22T09:59:43.113Z,95379.19
2022-12-22T10:04:56.978Z,95405.63
2022-12-22T10:10:08.610Z,95403.66
2022-12-22T10:15:14.257Z,95419.94
2022-12-22T10:20:27.779Z,95419.06
2022-12-22T10:31:12.764Z,95436.28
2022-12-22T10:36:21.175Z,95419.41
2022-12-22T10:41:27.091Z,95410.09
2022-12-22T10:46:34.262Z,95412.81
2022-12-22T10:51:35.990Z,95400.91
2022-12-22T10:56:37.568Z,95395.00
2022-12-22T11:01:39.442Z,95390.47
2022-12-22T11:06:43.782Z,95398.75
2022-12-22T11:11:55.758Z,95378.91
2022-12-22T11:17:15.828Z,95385.69
2022-12-22T11:22:48.421Z,95375.56
2022-12-22T11:28:12.383Z,95353.47
2022-12-22T11:33:46.133Z,95353.69
2022-12-22T11:38:54.479Z,95369.22
2022-12-22T11:44:12.072Z,95351.00
2022-12-22T11:49:40.380Z,95353.16
2022-12-22T11:55:10.379Z,95338.97
2022-12-22T12:00:14.416Z,95324.84
2022-12-22T12:05:42.306Z,95327.16
2022-12-22T12:11:14.645Z,95317.00
2022-12-22T12:16:34.924Z,95345.69
2022-12-22T12:22:05.520Z,95357.16
2022-12-22T12:27:55.109Z,95363.72
2022-12-22T12:33:07.184Z,95369.53
2022-12-22T12:38:47.909Z,95374.94
2022-12-22T12:43:41.240Z,95379.63
2022-12-22T12:48:42.939Z,95392.69
2022-12-22T12:54:33.960Z,95394.25
2022-12-22T12:59:41.547Z,95392.34
2022-12-22T13:05:09.241Z,95391.47
2022-12-22T13:10:24.689Z,95391.22
2022-12-22T13:15:36.004Z,95398.59
2022-12-22T13:20:38.115Z,95405.91
2022-12-22T13:25:45.582Z,95418.16
2022-12-22T13:30:49.395Z,95422.22
2022-12-22T13:35:58.270Z,95418.91
2022-12-22T13:41:04.601Z,95433.66
2022-12-22T13:46:09.258Z,95419.81
2022-12-22T13:51:18.187Z,95421.59
2022-12-22T13:56:23.556Z,95425.59
2022-12-22T14:01:26.153Z,95442.00
2022-12-22T14:06:29.498Z,95446.44
2022-12-22T14:11:31.332Z,95439.09
2022-12-22T14:16:33.062Z,95452.03
2022-12-22T14:21:35.176Z,95474.66
2022-12-22T14:26:36.784Z,95479.22
2022-12-22T14:31:58.271Z,95478.25
2022-12-22T14:37:01.796Z,95470.75
2022-12-22T14:42:13.179Z,95470.44
2022-12-22T14:47:23.306Z,95466.16
2022-12-22T14:52:43.822Z,95458.53
2022-12-22T14:57:45.603Z,95440.88
2022-12-22T15:03:01.375Z,95448.25
2022-12-22T15:08:08.900Z,95452.03
2022-12-22T15:13:23.928Z,95437.84
2022-12-22T15:18:27.376Z,95435.66
2022-12-22T15:23:29.020Z,95442.59
2022-12-22T15:28:31.188Z,95428.59
2022-12-22T15:33:33.107Z,95433.56
2022-12-22T15:38:38.758Z,95421.09
2022-12-22T15:43:59.640Z,95411.50
2022-12-22T15:49:02.217Z,95408.16
2022-12-22T15:54:04.260Z,95418.47
2022-12-22T15:59:06.099Z,95399.81
2022-12-22T16:04:07.707Z,95401.72
2022-12-22T16:25:38.512Z,95391.09
2022-12-22T17:30:25.047Z,95377.59
2022-12-22T17:35:27.032Z,95390.69
2022-12-22T17:40:30.330Z,95386.41
2022-12-22T17:45:32.168Z,95387.69
2022-12-22T17:50:34.511Z,95399.34
2022-12-22T18:00:57.828Z,95367.72
2022-12-22T18:05:59.938Z,95373.84
2022-12-22T18:11:02.424Z,95368.88
2022-12-22T18:16:04.274Z,95361.63
2022-12-22T18:21:08.308Z,95352.75
2022-12-22T18:26:25.378Z,95359.16
2022-12-22T18:31:26.985Z,95357.94
2022-12-22T18:36:32.107Z,95359.16
2022-12-22T18:41:34.289Z,95347.94
2022-12-22T18:46:35.950Z,95333.66
2022-12-22T18:51:37.709Z,95343.53
2022-12-22T18:56:39.337Z,95339.38
2022-12-22T19:52:34.234Z,95246.88
2022-12-22T19:57:36.228Z,95249.50
2022-12-22T20:08:02.207Z,95236.75
2022-12-22T20:18:52.370Z,95212.19
2022-12-22T20:23:56.685Z,95209.44
2022-12-22T20:28:58.375Z,95199.34
2022-12-22T20:33:59.981Z,95204.59
2022-12-22T20:39:02.938Z,95209.31
2022-12-22T20:44:04.548Z,95214.31
2022-12-22T20:49:14.988Z,95199.94
2022-12-22T20:54:16.711Z,95177.53
2022-12-22T20:59:21.446Z,95149.00
2022-12-22T21:04:23.168Z,95140.94
2022-12-22T21:09:25.904Z,95172.81
2022-12-22T21:14:27.569Z,95175.16
2022-12-22T21:19:29.275Z,95183.63
2022-12-22T21:24:30.781Z,95184.31
2022-12-22T21:40:28.630Z,95200.50
2022-12-22T21:45:31.628Z,95188.44
2022-12-22T21:50:35.119Z,95164.50
2022-12-22T21:55:38.744Z,95143.88
2022-12-22T22:00:45.667Z,95132.94
2022-12-22T22:05:47.382Z,95112.44
2022-12-22T22:10:49.431Z,95112.34
2022-12-22T22:21:17.079Z,95096.03
2022-12-22T22:26:18.727Z,95100.56
2022-12-22T22:31:20.410Z,95088.13
2022-12-22T22:36:22.104Z,95086.19
2022-12-22T22:41:23.684Z,95085.78
2022-12-22T22:46:25.427Z,95079.25
2022-12-22T22:51:32.501Z,95072.06
2022-12-22T23:02:01.481Z,95061.81
2022-12-22T23:07:03.748Z,95073.97
2022-12-22T23:33:40.857Z,95074.78
2022-12-22T23:44:06.517Z,95072.84
2022-12-22T23:54:31.870Z,95052.91
2022-12-22T23:59:34.652Z,95062.97
